sensor_id;sensor_type;location;lat;lon;timestamp;temperature;humidity
12370;DHT22;6249;52.128;9.986;2022-09-24T00:03:22;14.10;99.90
12370;DHT22;6249;52.128;9.986;2022-09-24T00:06:45;14.20;99.90
12370;DHT22;6249;52.128;9.986;2022-09-24T00:10:06;14.10;99.90
12370;DHT22;6249;52.128;9.986;2022-09-24T00:13:29;14.10;99.90
12370;DHT22;6249;52.128;9.986;2022-09-24T00:16:50;14.10;99.90
12370;DHT22;6249;52.128;9.986;2022-09-24T00:20:13;14.10;99.90
12370;DHT22;6249;52.128;9.986;2022-09-24T00:23:34;14.00;99.90
12370;DHT22;6249;52.128;9.986;2022-09-24T00:26:57;14.10;99.90
12370;DHT22;6249;52.128;9.986;2022-09-24T00:30:18;14.10;99.90
12370;DHT22;6249;52.128;9.986;2022-09-24T00:33:41;14.00;99.90
12370;DHT22;6249;52.128;9.986;2022-09-24T00:37:02;13.90;99.90
12370;DHT22;6249;52.128;9.986;2022-09-24T00:40:37;13.90;99.90
12370;DHT22;6249;52.128;9.986;2022-09-24T00:43:59;13.80;99.90
12370;DHT22;6249;52.128;9.986;2022-09-24T00:47:36;13.70;99.90
12370;DHT22;6249;52.128;9.986;2022-09-24T00:50:57;13.60;99.90
12370;DHT22;6249;52.128;9.986;2022-09-24T00:54:25;13.60;99.90
12370;DHT22;6249;52.128;9.986;2022-09-24T00:57:48;13.70;99.90
12370;DHT22;6249;52.128;9.986;2022-09-24T01:01:13;13.70;99.90
12370;DHT22;6249;52.128;9.986;2022-09-24T01:04:37;13.70;99.90
12370;DHT22;6249;52.128;9.986;2022-09-24T01:07:57;13.80;99.90
12370;DHT22;6249;52.128;9.986;2022-09-24T01:15:25;13.60;99.90
12370;DHT22;6249;52.128;9.986;2022-09-24T01:19:00;13.60;99.90
12370;DHT22;6249;52.128;9.986;2022-09-24T01:22:32;13.60;99.90
12370;DHT22;6249;52.128;9.986;2022-09-24T01:33:10;13.60;99.90
12370;DHT22;6249;52.128;9.986;2022-09-24T01:36:36;13.50;99.90
12370;DHT22;6249;52.128;9.986;2022-09-24T01:39:58;13.40;99.90
12370;DHT22;6249;52.128;9.986;2022-09-24T01:43:24;13.40;99.90
12370;DHT22;6249;52.128;9.986;2022-09-24T01:46:48;13.30;99.90
12370;DHT22;6249;52.128;9.986;2022-09-24T01:50:11;13.30;99.90
12370;DHT22;6249;52.128;9.986;2022-09-24T01:53:41;13.30;99.90
12370;DHT22;6249;52.128;9.986;2022-09-24T02:00:33;13.30;99.90
12370;DHT22;6249;52.128;9.986;2022-09-24T02:03:59;13.30;99.90
12370;DHT22;6249;52.128;9.986;2022-09-24T02:07:28;13.40;99.90
12370;DHT22;6249;52.128;9.986;2022-09-24T02:11:04;13.40;99.90
12370;DHT22;6249;52.128;9.986;2022-09-24T02:14:31;13.40;99.90
12370;DHT22;6249;52.128;9.986;2022-09-24T02:17:57;13.50;99.90
12370;DHT22;6249;52.128;9.986;2022-09-24T02:21:23;13.50;99.90
12370;DHT22;6249;52.128;9.986;2022-09-24T02:24:52;13.50;99.90
12370;DHT22;6249;52.128;9.986;2022-09-24T02:28:17;13.40;99.90
12370;DHT22;6249;52.128;9.986;2022-09-24T02:31:41;13.40;99.90
12370;DHT22;6249;52.128;9.986;2022-09-24T02:35:07;13.40;99.90
12370;DHT22;6249;52.128;9.986;2022-09-24T02:38:28;13.30;99.90
12370;DHT22;6249;52.128;9.986;2022-09-24T02:41:54;13.30;99.90
12370;DHT22;6249;52.128;9.986;2022-09-24T02:45:20;13.20;99.90
12370;DHT22;6249;52.128;9.986;2022-09-24T02:48:44;13.20;99.90
12370;DHT22;6249;52.128;9.986;2022-09-24T02:52:05;13.20;99.90
12370;DHT22;6249;52.128;9.986;2022-09-24T02:55:26;13.20;99.90
12370;DHT22;6249;52.128;9.986;2022-09-24T02:58:48;13.20;99.90
12370;DHT22;6249;52.128;9.986;2022-09-24T03:02:12;13.20;99.90
12370;DHT22;6249;52.128;9.986;2022-09-24T03:05:34;13.20;99.90
12370;DHT22;6249;52.128;9.986;2022-09-24T03:08:55;13.20;99.90
12370;DHT22;6249;52.128;9.986;2022-09-24T03:12:18;13.20;99.90
12370;DHT22;6249;52.128;9.986;2022-09-24T03:15:38;13.20;99.90
12370;DHT22;6249;52.128;9.986;2022-09-24T03:18:59;13.10;99.90
12370;DHT22;6249;52.128;9.986;2022-09-24T03:22:22;13.20;99.90
12370;DHT22;6249;52.128;9.986;2022-09-24T03:25:43;13.20;99.90
12370;DHT22;6249;52.128;9.986;2022-09-24T03:29:05;13.10;99.90
12370;DHT22;6249;52.128;9.986;2022-09-24T03:32:26;13.20;99.90
12370;DHT22;6249;52.128;9.986;2022-09-24T03:35:47;13.20;99.90
12370;DHT22;6249;52.128;9.986;2022-09-24T03:39:09;13.10;99.90
12370;DHT22;6249;52.128;9.986;2022-09-24T03:42:32;13.00;99.90
12370;DHT22;6249;52.128;9.986;2022-09-24T03:45:54;13.00;99.90
12370;DHT22;6249;52.128;9.986;2022-09-24T03:49:17;13.00;99.90
12370;DHT22;6249;52.128;9.986;2022-09-24T03:52:38;13.00;99.90
12370;DHT22;6249;52.128;9.986;2022-09-24T03:55:59;12.90;99.90
12370;DHT22;6249;52.128;9.986;2022-09-24T03:59:24;12.80;99.90
12370;DHT22;6249;52.128;9.986;2022-09-24T04:02:44;12.80;99.90
12370;DHT22;6249;52.128;9.986;2022-09-24T04:06:05;12.80;99.90
12370;DHT22;6249;52.128;9.986;2022-09-24T04:09:28;12.80;99.90
12370;DHT22;6249;52.128;9.986;2022-09-24T04:12:50;12.70;99.90
12370;DHT22;6249;52.128;9.986;2022-09-24T04:16:11;12.70;99.90
12370;DHT22;6249;52.128;9.986;2022-09-24T04:19:32;12.60;99.90
12370;DHT22;6249;52.128;9.986;2022-09-24T04:22:55;12.60;99.90
12370;DHT22;6249;52.128;9.986;2022-09-24T04:26:16;12.50;99.90
12370;DHT22;6249;52.128;9.986;2022-09-24T04:29:36;12.50;99.90
12370;DHT22;6249;52.128;9.986;2022-09-24T04:32:57;12.50;99.90
12370;DHT22;6249;52.128;9.986;2022-09-24T04:36:21;12.50;99.90
12370;DHT22;6249;52.128;9.986;2022-09-24T04:39:42;12.40;99.90
12370;DHT22;6249;52.128;9.986;2022-09-24T04:43:03;12.30;99.90
12370;DHT22;6249;52.128;9.986;2022-09-24T04:46:25;12.20;99.90
12370;DHT22;6249;52.128;9.986;2022-09-24T04:49:48;12.20;99.90
12370;DHT22;6249;52.128;9.986;2022-09-24T04:53:08;12.20;99.90
12370;DHT22;6249;52.128;9.986;2022-09-24T04:56:29;12.40;99.90
12370;DHT22;6249;52.128;9.986;2022-09-24T04:59:50;12.10;99.90
12370;DHT22;6249;52.128;9.986;2022-09-24T05:03:10;12.20;99.90
12370;DHT22;6249;52.128;9.986;2022-09-24T05:06:33;12.10;99.90
12370;DHT22;6249;52.128;9.986;2022-09-24T05:09:58;12.10;99.90
12370;DHT22;6249;52.128;9.986;2022-09-24T05:13:19;12.10;99.90
12370;DHT22;6249;52.128;9.986;2022-09-24T05:16:40;12.10;99.90
12370;DHT22;6249;52.128;9.986;2022-09-24T05:20:01;12.10;99.90
12370;DHT22;6249;52.128;9.986;2022-09-24T05:23:26;12.00;99.90
12370;DHT22;6249;52.128;9.986;2022-09-24T05:26:47;11.90;99.90
12370;DHT22;6249;52.128;9.986;2022-09-24T05:30:25;11.90;99.90
12370;DHT22;6249;52.128;9.986;2022-09-24T05:33:48;11.90;99.90
12370;DHT22;6249;52.128;9.986;2022-09-24T05:37:11;11.90;99.90
12370;DHT22;6249;52.128;9.986;2022-09-24T05:40:34;11.90;99.90
12370;DHT22;6249;52.128;9.986;2022-09-24T05:44:12;11.90;99.90
12370;DHT22;6249;52.128;9.986;2022-09-24T05:47:32;12.00;99.90
12370;DHT22;6249;52.128;9.986;2022-09-24T05:50:55;12.00;99.90
12370;DHT22;6249;52.128;9.986;2022-09-24T05:54:17;12.00;99.90
12370;DHT22;6249;52.128;9.986;2022-09-24T05:57:38;12.00;99.90
12370;DHT22;6249;52.128;9.986;2022-09-24T06:00:59;12.10;99.90
12370;DHT22;6249;52.128;9.986;2022-09-24T06:04:25;12.10;99.90
12370;DHT22;6249;52.128;9.986;2022-09-24T06:07:49;12.20;99.90
12370;DHT22;6249;52.128;9.986;2022-09-24T06:11:10;12.20;99.90
12370;DHT22;6249;52.128;9.986;2022-09-24T06:14:35;12.30;99.90
12370;DHT22;6249;52.128;9.986;2022-09-24T06:17:58;12.30;99.90
12370;DHT22;6249;52.128;9.986;2022-09-24T06:21:20;12.40;99.90
12370;DHT22;6249;52.128;9.986;2022-09-24T06:24:41;12.40;99.90
12370;DHT22;6249;52.128;9.986;2022-09-24T06:28:07;12.40;99.90
12370;DHT22;6249;52.128;9.986;2022-09-24T06:31:28;12.60;99.90
12370;DHT22;6249;52.128;9.986;2022-09-24T06:34:51;12.60;99.90
12370;DHT22;6249;52.128;9.986;2022-09-24T06:38:13;12.60;99.90
12370;DHT22;6249;52.128;9.986;2022-09-24T06:41:34;12.70;99.90
12370;DHT22;6249;52.128;9.986;2022-09-24T06:44:55;12.80;99.90
12370;DHT22;6249;52.128;9.986;2022-09-24T06:48:15;12.80;99.90
12370;DHT22;6249;52.128;9.986;2022-09-24T06:51:37;12.90;99.90
12370;DHT22;6249;52.128;9.986;2022-09-24T06:55:00;13.00;99.90
12370;DHT22;6249;52.128;9.986;2022-09-24T06:58:23;13.10;99.90
12370;DHT22;6249;52.128;9.986;2022-09-24T07:01:46;13.10;99.90
12370;DHT22;6249;52.128;9.986;2022-09-24T07:05:11;13.30;99.90
12370;DHT22;6249;52.128;9.986;2022-09-24T07:08:34;13.40;99.90
12370;DHT22;6249;52.128;9.986;2022-09-24T07:11:54;13.50;99.90
12370;DHT22;6249;52.128;9.986;2022-09-24T07:15:17;13.60;99.90
12370;DHT22;6249;52.128;9.986;2022-09-24T07:18:37;13.80;99.90
12370;DHT22;6249;52.128;9.986;2022-09-24T07:21:58;13.80;99.90
12370;DHT22;6249;52.128;9.986;2022-09-24T07:25:22;14.00;99.90
12370;DHT22;6249;52.128;9.986;2022-09-24T07:28:43;14.30;99.90
12370;DHT22;6249;52.128;9.986;2022-09-24T07:32:04;14.50;99.90
12370;DHT22;6249;52.128;9.986;2022-09-24T07:35:26;14.70;99.90
12370;DHT22;6249;52.128;9.986;2022-09-24T07:38:46;14.90;99.90
12370;DHT22;6249;52.128;9.986;2022-09-24T07:42:07;15.10;99.90
12370;DHT22;6249;52.128;9.986;2022-09-24T07:45:28;15.10;99.90
12370;DHT22;6249;52.128;9.986;2022-09-24T07:48:51;15.20;99.90
12370;DHT22;6249;52.128;9.986;2022-09-24T07:52:13;15.40;99.90
12370;DHT22;6249;52.128;9.986;2022-09-24T07:55:38;15.40;99.90
12370;DHT22;6249;52.128;9.986;2022-09-24T07:58:59;15.50;99.90
12370;DHT22;6249;52.128;9.986;2022-09-24T08:02:20;15.60;99.90
12370;DHT22;6249;52.128;9.986;2022-09-24T08:05:44;15.70;99.90
12370;DHT22;6249;52.128;9.986;2022-09-24T08:09:07;16.00;99.90
12370;DHT22;6249;52.128;9.986;2022-09-24T08:12:30;16.20;99.90
12370;DHT22;6249;52.128;9.986;2022-09-24T08:15:57;16.30;99.90
12370;DHT22;6249;52.128;9.986;2022-09-24T08:19:23;16.20;99.90
12370;DHT22;6249;52.128;9.986;2022-09-24T08:22:44;16.20;99.90
12370;DHT22;6249;52.128;9.986;2022-09-24T08:26:11;16.20;99.90
12370;DHT22;6249;52.128;9.986;2022-09-24T08:29:34;16.20;99.90
12370;DHT22;6249;52.128;9.986;2022-09-24T08:33:00;16.20;99.90
12370;DHT22;6249;52.128;9.986;2022-09-24T08:36:24;16.40;99.90
12370;DHT22;6249;52.128;9.986;2022-09-24T08:39:44;16.50;99.90
12370;DHT22;6249;52.128;9.986;2022-09-24T08:50:18;16.80;99.90
12370;DHT22;6249;52.128;9.986;2022-09-24T08:57:19;16.80;99.90
12370;DHT22;6249;52.128;9.986;2022-09-24T09:11:06;16.80;99.90
12370;DHT22;6249;52.128;9.986;2022-09-24T09:28:41;16.80;99.90
12370;DHT22;6249;52.128;9.986;2022-09-24T09:32:11;16.80;99.90
12370;DHT22;6249;52.128;9.986;2022-09-24T09:35:57;17.00;99.90
12370;DHT22;6249;52.128;9.986;2022-09-24T09:39:48;17.20;99.90
12370;DHT22;6249;52.128;9.986;2022-09-24T09:43:14;17.30;99.90
12370;DHT22;6249;52.128;9.986;2022-09-24T09:46:37;17.30;99.90
12370;DHT22;6249;52.128;9.986;2022-09-24T09:50:07;17.10;99.90
12370;DHT22;6249;52.128;9.986;2022-09-24T09:53:31;17.00;99.90
12370;DHT22;6249;52.128;9.986;2022-09-24T09:56:52;16.90;99.90
12370;DHT22;6249;52.128;9.986;2022-09-24T10:00:48;16.80;99.90
12370;DHT22;6249;52.128;9.986;2022-09-24T10:04:36;16.70;99.90
12370;DHT22;6249;52.128;9.986;2022-09-24T10:07:58;16.70;99.90
12370;DHT22;6249;52.128;9.986;2022-09-24T10:11:21;16.80;99.90
12370;DHT22;6249;52.128;9.986;2022-09-24T10:14:43;16.80;99.90
12370;DHT22;6249;52.128;9.986;2022-09-24T10:18:03;16.70;99.90
12370;DHT22;6249;52.128;9.986;2022-09-24T10:21:34;16.80;99.90
12370;DHT22;6249;52.128;9.986;2022-09-24T10:24:57;17.10;99.90
12370;DHT22;6249;52.128;9.986;2022-09-24T10:28:23;17.30;99.90
12370;DHT22;6249;52.128;9.986;2022-09-24T10:32:03;17.50;99.90
12370;DHT22;6249;52.128;9.986;2022-09-24T10:35:33;17.50;99.90
12370;DHT22;6249;52.128;9.986;2022-09-24T10:42:29;17.60;99.90
12370;DHT22;6249;52.128;9.986;2022-09-24T10:50:02;17.30;99.90
12370;DHT22;6249;52.128;9.986;2022-09-24T10:57:26;17.00;99.90
12370;DHT22;6249;52.128;9.986;2022-09-24T11:08:46;16.80;99.90
12370;DHT22;6249;52.128;9.986;2022-09-24T11:12:05;16.80;99.90
12370;DHT22;6249;52.128;9.986;2022-09-24T11:19:01;16.80;99.90
12370;DHT22;6249;52.128;9.986;2022-09-24T11:44:23;16.60;99.90
12370;DHT22;6249;52.128;9.986;2022-09-24T11:56:04;16.90;99.90
12370;DHT22;6249;52.128;9.986;2022-09-24T11:59:38;16.90;99.90
12370;DHT22;6249;52.128;9.986;2022-09-24T12:03:11;16.90;99.90
12370;DHT22;6249;52.128;9.986;2022-09-24T12:14:12;17.20;99.90
12370;DHT22;6249;52.128;9.986;2022-09-24T12:17:39;17.30;99.90
12370;DHT22;6249;52.128;9.986;2022-09-24T12:21:14;17.30;99.90
12370;DHT22;6249;52.128;9.986;2022-09-24T12:24:40;17.40;99.90
12370;DHT22;6249;52.128;9.986;2022-09-24T12:28:02;17.50;99.90
12370;DHT22;6249;52.128;9.986;2022-09-24T12:39:37;17.70;99.90
12370;DHT22;6249;52.128;9.986;2022-09-24T12:43:06;17.70;99.90
12370;DHT22;6249;52.128;9.986;2022-09-24T12:46:53;17.70;99.90
12370;DHT22;6249;52.128;9.986;2022-09-24T12:50:19;17.70;99.90
12370;DHT22;6249;52.128;9.986;2022-09-24T12:53:42;17.70;99.90
12370;DHT22;6249;52.128;9.986;2022-09-24T12:57:20;17.70;99.90
12370;DHT22;6249;52.128;9.986;2022-09-24T13:00:44;17.70;99.90
12370;DHT22;6249;52.128;9.986;2022-09-24T13:07:38;17.50;99.90
12370;DHT22;6249;52.128;9.986;2022-09-24T13:11:02;17.40;99.90
12370;DHT22;6249;52.128;9.986;2022-09-24T13:14:27;17.40;99.90
12370;DHT22;6249;52.128;9.986;2022-09-24T13:21:25;17.00;99.90
12370;DHT22;6249;52.128;9.986;2022-09-24T13:24:51;16.90;99.90
12370;DHT22;6249;52.128;9.986;2022-09-24T13:28:27;16.80;99.90
12370;DHT22;6249;52.128;9.986;2022-09-24T13:31:53;16.80;99.90
12370;DHT22;6249;52.128;9.986;2022-09-24T13:35:18;16.70;99.90
12370;DHT22;6249;52.128;9.986;2022-09-24T13:39:12;16.60;99.90
12370;DHT22;6249;52.128;9.986;2022-09-24T13:46:12;16.50;99.90
12370;DHT22;6249;52.128;9.986;2022-09-24T13:49:42;16.40;99.90
12370;DHT22;6249;52.128;9.986;2022-09-24T13:57:23;16.20;99.90
12370;DHT22;6249;52.128;9.986;2022-09-24T14:00:44;16.10;99.90
12370;DHT22;6249;52.128;9.986;2022-09-24T14:04:25;16.20;99.90
12370;DHT22;6249;52.128;9.986;2022-09-24T14:08:17;16.20;99.90
12370;DHT22;6249;52.128;9.986;2022-09-24T14:11:51;16.20;99.90
12370;DHT22;6249;52.128;9.986;2022-09-24T14:15:17;16.10;99.90
12370;DHT22;6249;52.128;9.986;2022-09-24T14:18:38;16.10;99.90
12370;DHT22;6249;52.128;9.986;2022-09-24T14:22:05;16.00;99.90
12370;DHT22;6249;52.128;9.986;2022-09-24T14:25:28;16.10;99.90
12370;DHT22;6249;52.128;9.986;2022-09-24T14:28:49;16.20;99.90
12370;DHT22;6249;52.128;9.986;2022-09-24T14:32:31;16.20;99.90
12370;DHT22;6249;52.128;9.986;2022-09-24T14:35:54;16.30;99.90
12370;DHT22;6249;52.128;9.986;2022-09-24T14:39:15;16.40;99.90
12370;DHT22;6249;52.128;9.986;2022-09-24T14:42:42;16.30;99.90
12370;DHT22;6249;52.128;9.986;2022-09-24T14:53:56;16.20;99.90
12370;DHT22;6249;52.128;9.986;2022-09-24T15:00:49;15.90;99.90
12370;DHT22;6249;52.128;9.986;2022-09-24T15:04:20;15.90;99.90
12370;DHT22;6249;52.128;9.986;2022-09-24T15:07:44;15.80;99.90
12370;DHT22;6249;52.128;9.986;2022-09-24T15:11:13;15.70;99.90
12370;DHT22;6249;52.128;9.986;2022-09-24T15:14:34;15.50;99.90
12370;DHT22;6249;52.128;9.986;2022-09-24T15:17:55;15.40;99.90
12370;DHT22;6249;52.128;9.986;2022-09-24T15:21:16;15.30;99.90
12370;DHT22;6249;52.128;9.986;2022-09-24T15:24:37;15.40;99.90
12370;DHT22;6249;52.128;9.986;2022-09-24T15:27:57;15.50;99.90
12370;DHT22;6249;52.128;9.986;2022-09-24T15:31:18;15.60;99.90
12370;DHT22;6249;52.128;9.986;2022-09-24T15:34:39;15.50;99.90
12370;DHT22;6249;52.128;9.986;2022-09-24T15:38:00;15.40;99.90
12370;DHT22;6249;52.128;9.986;2022-09-24T15:41:23;15.50;99.90
12370;DHT22;6249;52.128;9.986;2022-09-24T15:44:43;15.50;99.90
12370;DHT22;6249;52.128;9.986;2022-09-24T15:48:04;15.70;99.90
12370;DHT22;6249;52.128;9.986;2022-09-24T15:51:26;15.60;99.90
12370;DHT22;6249;52.128;9.986;2022-09-24T15:54:47;15.50;99.90
12370;DHT22;6249;52.128;9.986;2022-09-24T15:58:11;15.50;99.90
12370;DHT22;6249;52.128;9.986;2022-09-24T16:01:33;15.40;99.90
12370;DHT22;6249;52.128;9.986;2022-09-24T16:04:54;15.30;99.90
12370;DHT22;6249;52.128;9.986;2022-09-24T16:08:15;15.30;99.90
12370;DHT22;6249;52.128;9.986;2022-09-24T16:11:35;15.20;99.90
12370;DHT22;6249;52.128;9.986;2022-09-24T16:14:56;15.30;99.90
12370;DHT22;6249;52.128;9.986;2022-09-24T16:18:18;15.10;99.90
12370;DHT22;6249;52.128;9.986;2022-09-24T16:21:40;15.10;99.90
12370;DHT22;6249;52.128;9.986;2022-09-24T16:25:00;15.00;99.90
12370;DHT22;6249;52.128;9.986;2022-09-24T16:28:22;14.90;99.90
12370;DHT22;6249;52.128;9.986;2022-09-24T16:31:43;14.80;99.90
12370;DHT22;6249;52.128;9.986;2022-09-24T16:35:04;14.80;99.90
12370;DHT22;6249;52.128;9.986;2022-09-24T16:38:25;14.80;99.90
12370;DHT22;6249;52.128;9.986;2022-09-24T16:41:50;14.70;99.90
12370;DHT22;6249;52.128;9.986;2022-09-24T16:45:10;14.70;99.90
12370;DHT22;6249;52.128;9.986;2022-09-24T16:48:32;14.60;99.90
12370;DHT22;6249;52.128;9.986;2022-09-24T16:51:54;14.60;99.90
12370;DHT22;6249;52.128;9.986;2022-09-24T16:55:15;14.40;99.90
12370;DHT22;6249;52.128;9.986;2022-09-24T16:58:42;14.40;99.90
12370;DHT22;6249;52.128;9.986;2022-09-24T17:02:03;14.40;99.90
12370;DHT22;6249;52.128;9.986;2022-09-24T17:05:24;14.40;99.90
12370;DHT22;6249;52.128;9.986;2022-09-24T17:08:44;14.40;99.90
12370;DHT22;6249;52.128;9.986;2022-09-24T17:12:23;14.40;99.90
12370;DHT22;6249;52.128;9.986;2022-09-24T17:15:44;14.30;99.90
12370;DHT22;6249;52.128;9.986;2022-09-24T17:19:05;14.30;99.90
12370;DHT22;6249;52.128;9.986;2022-09-24T17:22:30;14.30;99.90
12370;DHT22;6249;52.128;9.986;2022-09-24T17:26:06;14.40;99.90
12370;DHT22;6249;52.128;9.986;2022-09-24T17:29:29;14.40;99.90
12370;DHT22;6249;52.128;9.986;2022-09-24T17:32:50;14.40;99.90
12370;DHT22;6249;52.128;9.986;2022-09-24T17:36:12;14.30;99.90
12370;DHT22;6249;52.128;9.986;2022-09-24T17:39:33;14.30;99.90
12370;DHT22;6249;52.128;9.986;2022-09-24T17:42:54;14.30;99.90
12370;DHT22;6249;52.128;9.986;2022-09-24T17:46:18;14.30;99.90
12370;DHT22;6249;52.128;9.986;2022-09-24T17:49:41;14.30;99.90
12370;DHT22;6249;52.128;9.986;2022-09-24T17:53:06;14.30;99.90
12370;DHT22;6249;52.128;9.986;2022-09-24T17:56:30;14.30;99.90
12370;DHT22;6249;52.128;9.986;2022-09-24T17:59:51;14.30;99.90
12370;DHT22;6249;52.128;9.986;2022-09-24T18:03:18;14.20;99.90
12370;DHT22;6249;52.128;9.986;2022-09-24T18:06:40;14.20;99.90
12370;DHT22;6249;52.128;9.986;2022-09-24T18:10:03;14.10;99.90
12370;DHT22;6249;52.128;9.986;2022-09-24T18:13:26;14.10;99.90
12370;DHT22;6249;52.128;9.986;2022-09-24T18:16:47;14.00;99.90
12370;DHT22;6249;52.128;9.986;2022-09-24T18:20:08;14.00;99.90
12370;DHT22;6249;52.128;9.986;2022-09-24T18:23:30;13.90;99.90
12370;DHT22;6249;52.128;9.986;2022-09-24T18:26:51;13.90;99.90
12370;DHT22;6249;52.128;9.986;2022-09-24T18:30:12;13.90;99.90
12370;DHT22;6249;52.128;9.986;2022-09-24T18:33:38;13.90;99.90
12370;DHT22;6249;52.128;9.986;2022-09-24T18:36:59;13.90;99.90
12370;DHT22;6249;52.128;9.986;2022-09-24T18:40:19;13.90;99.90
12370;DHT22;6249;52.128;9.986;2022-09-24T18:43:41;13.90;99.90
12370;DHT22;6249;52.128;9.986;2022-09-24T18:47:01;13.80;99.90
12370;DHT22;6249;52.128;9.986;2022-09-24T18:50:22;13.80;99.90
12370;DHT22;6249;52.128;9.986;2022-09-24T18:53:43;13.70;99.90
12370;DHT22;6249;52.128;9.986;2022-09-24T18:57:04;13.70;99.90
12370;DHT22;6249;52.128;9.986;2022-09-24T19:00:25;13.60;99.90
12370;DHT22;6249;52.128;9.986;2022-09-24T19:04:04;13.60;99.90
12370;DHT22;6249;52.128;9.986;2022-09-24T19:07:25;13.50;99.90
12370;DHT22;6249;52.128;9.986;2022-09-24T19:10:46;13.40;99.90
12370;DHT22;6249;52.128;9.986;2022-09-24T19:14:07;13.30;99.90
12370;DHT22;6249;52.128;9.986;2022-09-24T19:17:28;13.20;99.90
12370;DHT22;6249;52.128;9.986;2022-09-24T19:20:49;13.20;99.90
12370;DHT22;6249;52.128;9.986;2022-09-24T19:24:10;13.10;99.90
12370;DHT22;6249;52.128;9.986;2022-09-24T19:27:30;13.00;99.90
12370;DHT22;6249;52.128;9.986;2022-09-24T19:30:52;13.00;99.90
12370;DHT22;6249;52.128;9.986;2022-09-24T19:34:16;12.90;99.90
12370;DHT22;6249;52.128;9.986;2022-09-24T19:37:44;12.90;99.90
12370;DHT22;6249;52.128;9.986;2022-09-24T19:41:21;12.90;99.90
12370;DHT22;6249;52.128;9.986;2022-09-24T19:44:45;12.90;99.90
12370;DHT22;6249;52.128;9.986;2022-09-24T19:48:06;12.90;99.90
12370;DHT22;6249;52.128;9.986;2022-09-24T19:51:31;12.90;99.90
12370;DHT22;6249;52.128;9.986;2022-09-24T19:54:52;12.90;99.90
12370;DHT22;6249;52.128;9.986;2022-09-24T19:58:13;13.00;99.90
12370;DHT22;6249;52.128;9.986;2022-09-24T20:01:34;13.00;99.90
12370;DHT22;6249;52.128;9.986;2022-09-24T20:04:56;13.00;99.90
12370;DHT22;6249;52.128;9.986;2022-09-24T20:08:17;13.00;99.90
12370;DHT22;6249;52.128;9.986;2022-09-24T20:11:40;13.00;99.90
12370;DHT22;6249;52.128;9.986;2022-09-24T20:15:00;13.00;99.90
12370;DHT22;6249;52.128;9.986;2022-09-24T20:18:21;13.00;99.90
12370;DHT22;6249;52.128;9.986;2022-09-24T20:21:42;13.00;99.90
12370;DHT22;6249;52.128;9.986;2022-09-24T20:25:03;13.00;99.90
12370;DHT22;6249;52.128;9.986;2022-09-24T20:28:31;13.10;99.90
12370;DHT22;6249;52.128;9.986;2022-09-24T20:31:54;13.00;99.90
12370;DHT22;6249;52.128;9.986;2022-09-24T20:35:19;13.00;99.90
12370;DHT22;6249;52.128;9.986;2022-09-24T20:38:41;13.00;99.90
12370;DHT22;6249;52.128;9.986;2022-09-24T20:42:02;13.00;99.90
12370;DHT22;6249;52.128;9.986;2022-09-24T20:45:25;12.90;99.90
12370;DHT22;6249;52.128;9.986;2022-09-24T20:48:46;12.90;99.90
12370;DHT22;6249;52.128;9.986;2022-09-24T20:52:07;12.90;99.90
12370;DHT22;6249;52.128;9.986;2022-09-24T20:55:30;12.90;99.90
12370;DHT22;6249;52.128;9.986;2022-09-24T20:58:55;12.80;99.90
12370;DHT22;6249;52.128;9.986;2022-09-24T21:02:15;12.80;99.90
12370;DHT22;6249;52.128;9.986;2022-09-24T21:05:36;12.70;99.90
12370;DHT22;6249;52.128;9.986;2022-09-24T21:08:57;12.60;99.90
12370;DHT22;6249;52.128;9.986;2022-09-24T21:12:17;12.60;99.90
12370;DHT22;6249;52.128;9.986;2022-09-24T21:15:41;12.50;99.90
12370;DHT22;6249;52.128;9.986;2022-09-24T21:19:03;12.50;99.90
12370;DHT22;6249;52.128;9.986;2022-09-24T21:22:26;12.40;99.90
12370;DHT22;6249;52.128;9.986;2022-09-24T21:25:49;12.90;99.90
12370;DHT22;6249;52.128;9.986;2022-09-24T21:32:34;12.30;99.90
12370;DHT22;6249;52.128;9.986;2022-09-24T21:35:59;12.30;99.90
12370;DHT22;6249;52.128;9.986;2022-09-24T21:39:24;12.20;99.90
12370;DHT22;6249;52.128;9.986;2022-09-24T21:42:50;12.20;99.90
12370;DHT22;6249;52.128;9.986;2022-09-24T21:46:11;12.20;99.90
12370;DHT22;6249;52.128;9.986;2022-09-24T21:49:35;12.20;99.90
12370;DHT22;6249;52.128;9.986;2022-09-24T21:52:56;12.20;99.90
12370;DHT22;6249;52.128;9.986;2022-09-24T21:56:19;12.20;99.90
12370;DHT22;6249;52.128;9.986;2022-09-24T21:59:39;12.10;99.90
12370;DHT22;6249;52.128;9.986;2022-09-24T22:03:18;12.10;99.90
12370;DHT22;6249;52.128;9.986;2022-09-24T22:06:40;12.10;99.90
12370;DHT22;6249;52.128;9.986;2022-09-24T22:10:00;12.10;99.90
12370;DHT22;6249;52.128;9.986;2022-09-24T22:13:21;12.20;99.90
12370;DHT22;6249;52.128;9.986;2022-09-24T22:16:42;12.10;99.90
12370;DHT22;6249;52.128;9.986;2022-09-24T22:20:03;12.10;99.90
12370;DHT22;6249;52.128;9.986;2022-09-24T22:23:24;12.20;99.90
12370;DHT22;6249;52.128;9.986;2022-09-24T22:26:50;12.40;99.90
12370;DHT22;6249;52.128;9.986;2022-09-24T22:30:10;12.40;99.90
12370;DHT22;6249;52.128;9.986;2022-09-24T22:33:34;12.50;99.90
12370;DHT22;6249;52.128;9.986;2022-09-24T22:37:13;12.60;99.90
12370;DHT22;6249;52.128;9.986;2022-09-24T22:40:36;12.70;99.90
12370;DHT22;6249;52.128;9.986;2022-09-24T22:43:57;12.70;99.90
12370;DHT22;6249;52.128;9.986;2022-09-24T22:47:18;12.80;99.90
12370;DHT22;6249;52.128;9.986;2022-09-24T22:50:39;12.90;99.90
12370;DHT22;6249;52.128;9.986;2022-09-24T22:54:02;12.90;99.90
12370;DHT22;6249;52.128;9.986;2022-09-24T22:57:23;12.90;99.90
12370;DHT22;6249;52.128;9.986;2022-09-24T23:00:46;12.90;99.90
12370;DHT22;6249;52.128;9.986;2022-09-24T23:04:09;12.90;99.90
12370;DHT22;6249;52.128;9.986;2022-09-24T23:07:32;12.90;99.90
12370;DHT22;6249;52.128;9.986;2022-09-24T23:10:53;12.90;99.90
12370;DHT22;6249;52.128;9.986;2022-09-24T23:14:14;12.80;99.90
12370;DHT22;6249;52.128;9.986;2022-09-24T23:17:36;12.90;99.90
12370;DHT22;6249;52.128;9.986;2022-09-24T23:21:03;12.90;99.90
12370;DHT22;6249;52.128;9.986;2022-09-24T23:24:24;12.90;99.90
12370;DHT22;6249;52.128;9.986;2022-09-24T23:27:45;12.90;99.90
12370;DHT22;6249;52.128;9.986;2022-09-24T23:31:10;12.90;99.90
12370;DHT22;6249;52.128;9.986;2022-09-24T23:34:31;12.90;99.90
12370;DHT22;6249;52.128;9.986;2022-09-24T23:37:52;13.00;99.90
12370;DHT22;6249;52.128;9.986;2022-09-24T23:41:13;13.10;99.90
12370;DHT22;6249;52.128;9.986;2022-09-24T23:44:36;13.10;99.90
12370;DHT22;6249;52.128;9.986;2022-09-24T23:47:57;13.10;99.90
12370;DHT22;6249;52.128;9.986;2022-09-24T23:51:20;13.10;99.90
12370;DHT22;6249;52.128;9.986;2022-09-24T23:54:41;13.10;99.90
12370;DHT22;6249;52.128;9.986;2022-09-24T23:58:04;13.10;99.90
